createdAt,value
2022-08-05T00:07:59.762Z,100667.16
2022-08-05T00:15:55.149Z,100659.09
2022-08-05T00:23:15.753Z,100673.16
2022-08-05T00:30:51.941Z,100663.38
2022-08-05T00:38:28.860Z,100677.34
2022-08-05T00:46:08.936Z,100709.91
2022-08-05T00:54:01.375Z,100700.34
2022-08-05T01:01:42.745Z,100699.50
2022-08-05T01:09:22.855Z,100710.63
2022-08-05T01:17:04.688Z,100699.91
2022-08-05T01:25:23.661Z,100714.78
2022-08-05T01:33:19.628Z,100710.81
2022-08-05T01:40:55.274Z,100702.03
2022-08-05T01:48:32.971Z,100711.34
2022-08-05T01:56:09.077Z,100698.31
2022-08-05T02:03:47.986Z,100699.19
2022-08-05T02:11:24.037Z,100687.41
2022-08-05T02:19:18.734Z,100695.63
2022-08-05T02:26:56.401Z,100700.28
2022-08-05T02:34:34.175Z,100692.91
2022-08-05T02:42:09.363Z,100695.88
2022-08-05T02:49:45.558Z,100680.59
2022-08-05T02:58:10.736Z,100679.06
2022-08-05T03:05:17.120Z,100678.22
2022-08-05T03:20:30.874Z,100662.72
2022-08-05T03:28:06.885Z,100652.66
2022-08-05T03:35:46.341Z,100651.88
2022-08-05T03:44:09.663Z,100666.38
2022-08-05T03:52:38.147Z,100684.50
2022-08-05T03:59:20.438Z,100685.38
2022-08-05T04:06:56.664Z,100689.84
2022-08-05T04:14:32.310Z,100682.47
2022-08-05T04:22:11.945Z,100685.16
2022-08-05T04:29:46.042Z,100709.44
2022-08-05T04:38:00.667Z,100697.38
2022-08-05T04:45:31.097Z,100696.19
2022-08-05T04:53:16.994Z,100699.31
2022-08-05T05:00:51.153Z,100710.59
2022-08-05T05:08:26.687Z,100720.00
2022-08-05T05:16:06.095Z,100730.44
2022-08-05T05:24:04.034Z,100788.94
2022-08-05T05:39:10.969Z,100788.22
2022-08-05T05:46:45.255Z,100795.69
2022-08-05T05:54:49.908Z,100843.25
2022-08-05T06:02:17.142Z,100843.41
2022-08-05T06:10:10.750Z,100867.63
2022-08-05T06:17:52.806Z,100885.88
2022-08-05T06:26:12.762Z,100861.53
2022-08-05T06:33:33.426Z,100845.41
2022-08-05T06:41:19.720Z,100856.25
2022-08-05T06:48:59.174Z,100844.88
2022-08-05T06:56:35.221Z,100845.28
2022-08-05T07:04:09.198Z,100860.34
2022-08-05T07:11:51.483Z,100902.88
2022-08-05T07:20:10.615Z,100932.31
2022-08-05T07:27:21.111Z,100892.31
2022-08-05T07:34:57.735Z,100893.28
2022-08-05T07:42:34.219Z,100893.47
2022-08-05T07:50:10.975Z,100885.47
2022-08-05T07:58:02.414Z,100871.16
2022-08-05T08:05:39.654Z,100883.19
2022-08-05T08:13:15.900Z,100848.00
2022-08-05T08:21:03.201Z,100848.19
2022-08-05T08:28:58.956Z,100883.69
2022-08-05T08:36:49.060Z,100902.56
2022-08-05T08:45:25.162Z,100944.41
2022-08-05T08:52:26.553Z,100952.44
2022-08-05T09:00:01.913Z,100964.09
2022-08-05T09:07:39.448Z,100956.59
2022-08-05T09:15:31.151Z,100952.81
2022-08-05T09:23:09.461Z,100956.19
2022-08-05T09:30:52.951Z,100960.38
2022-08-05T09:38:27.424Z,100973.69
2022-08-05T09:46:08.830Z,100929.09
2022-08-05T09:53:53.783Z,100903.78
2022-08-05T10:01:32.021Z,100892.75
2022-08-05T10:09:27.286Z,100896.13
2022-08-05T10:17:37.935Z,100913.22
2022-08-05T10:25:09.845Z,100956.91
2022-08-05T10:33:00.693Z,100983.22
2022-08-05T10:40:43.533Z,100953.09
2022-08-05T10:48:56.614Z,100959.56
2022-08-05T10:56:45.338Z,100936.97
2022-08-05T11:04:26.259Z,100912.44
2022-08-05T11:12:00.240Z,100942.97
2022-08-05T11:20:17.608Z,100952.88
2022-08-05T11:27:50.914Z,100958.59
2022-08-05T11:35:44.556Z,100963.88
2022-08-05T11:44:05.846Z,100959.38
2022-08-05T11:51:44.811Z,100971.03
2022-08-05T11:59:26.298Z,100962.13
2022-08-05T12:07:01.950Z,100957.00
2022-08-05T12:14:43.164Z,100956.28
2022-08-05T12:22:20.142Z,100950.88
2022-08-05T12:30:03.327Z,100945.47
2022-08-05T12:37:37.970Z,100960.72
2022-08-05T12:45:13.779Z,100966.66
2022-08-05T12:52:56.751Z,100964.47
2022-08-05T13:01:59.857Z,100962.44
2022-08-05T13:08:32.281Z,100965.16
2022-08-05T13:16:15.305Z,100960.03
2022-08-05T13:23:52.258Z,100964.25
2022-08-05T13:31:34.082Z,100970.72
2022-08-05T13:40:13.153Z,100965.88
2022-08-05T13:47:34.920Z,100979.66
2022-08-05T13:55:10.190Z,100966.63
2022-08-05T14:02:45.571Z,100968.75
2022-08-05T14:10:28.593Z,100967.50
2022-08-05T14:18:05.802Z,100975.81
2022-08-05T14:25:54.021Z,100989.28
2022-08-05T14:33:56.281Z,101006.50
2022-08-05T14:41:24.668Z,101002.16
2022-08-05T14:49:04.195Z,100997.63
2022-08-05T14:56:44.099Z,100993.69
2022-08-05T15:04:22.819Z,100983.16
2022-08-05T15:11:58.079Z,100990.81
2022-08-05T15:19:33.433Z,101010.25
2022-08-05T15:27:08.934Z,101012.53
2022-08-05T15:34:44.729Z,101011.25
2022-08-05T15:42:53.987Z,101049.97
2022-08-05T15:50:15.514Z,101039.03
2022-08-05T15:57:50.129Z,101049.66
2022-08-05T16:05:28.367Z,101052.50
2022-08-05T16:13:02.452Z,101070.91
2022-08-05T16:20:38.007Z,101084.78
2022-08-05T16:28:11.907Z,101091.19
2022-08-05T16:35:53.007Z,101130.59
2022-08-05T16:43:30.272Z,101159.84
2022-08-05T16:51:10.158Z,101149.06
2022-08-05T16:58:44.782Z,101165.81
2022-08-05T17:06:20.082Z,101208.91
2022-08-05T17:14:00.369Z,101221.31
2022-08-05T17:21:42.872Z,101241.72
2022-08-05T17:29:39.870Z,101245.41
2022-08-05T17:37:39.377Z,101257.56
2022-08-05T17:53:14.691Z,101291.09
2022-08-05T18:00:50.688Z,101282.09
2022-08-05T18:08:26.425Z,101297.72
2022-08-05T18:16:00.511Z,101329.63
2022-08-05T18:23:45.554Z,101350.69
2022-08-05T18:31:20.307Z,101343.69
2022-08-05T18:38:55.804Z,101341.06
2022-08-05T18:46:29.568Z,101364.69
2022-08-05T18:54:06.656Z,101382.75
2022-08-05T19:01:48.185Z,101392.84
2022-08-05T19:09:40.018Z,101406.56
2022-08-05T19:17:14.529Z,101417.53
2022-08-05T19:24:54.698Z,101434.78
2022-08-05T19:32:30.852Z,101430.34
2022-08-05T19:40:10.240Z,101453.84
2022-08-05T19:47:44.438Z,101464.72
2022-08-05T19:56:14.497Z,101466.53
2022-08-05T20:03:13.503Z,101476.50
2022-08-05T20:10:49.973Z,101491.84
2022-08-05T20:18:36.028Z,101491.03
2022-08-05T20:26:16.001Z,101499.13
2022-08-05T20:33:50.821Z,101521.66
2022-08-05T20:41:27.339Z,101532.56
2022-08-05T20:49:24.235Z,101553.34
2022-08-05T20:57:00.847Z,101559.63
2022-08-05T21:04:37.343Z,101577.66
2022-08-05T21:12:12.851Z,101583.97
2022-08-05T21:19:52.309Z,101588.53
2022-08-05T21:27:28.057Z,101600.22
2022-08-05T21:35:29.604Z,101604.75
2022-08-05T21:43:05.854Z,101605.69
2022-08-05T21:50:42.124Z,101600.28
2022-08-05T21:58:32.013Z,101610.19
2022-08-05T22:06:08.282Z,101626.41
2022-08-05T22:14:05.961Z,101604.78
2022-08-05T22:21:37.431Z,101644.44
2022-08-05T22:29:14.476Z,101636.34
2022-08-05T22:36:48.722Z,101660.72
2022-08-05T22:44:23.896Z,101662.50
2022-08-05T22:52:04.447Z,101666.13
2022-08-05T22:59:51.844Z,101664.28
2022-08-05T23:07:28.000Z,101674.19
2022-08-05T23:15:08.813Z,101676.84
2022-08-05T23:22:43.378Z,101682.19
2022-08-05T23:30:26.960Z,101673.19
2022-08-05T23:38:03.015Z,101692.88
2022-08-05T23:45:39.656Z,101715.34
2022-08-05T23:53:22.731Z,101711.75
